Latest Weather Observations for Port Kembla Harbour

IDN60801

Issued at 10:02 pm EDT Wednesday 14 November 2018 (issued every 10 minutes, with the page automatically refreshed every 10 minutes)

About weather observations | Map of weather stations | Latest weather observations for NSW | Other Formats
Station Details ID: 068253 Name: PORT KEMBLA NTC AWS Lat: -34.47 Lon: 150.91 Height: 0.0 m
Data from the previous 72 hours. | See also: Recent months for locations in New South Wales
Date/Time
EDT
Temp
°C
App
Temp
°C
Dew
Point
°C
Rel
Hum
%
Delta-T
°C
Wind Press
QNH
hPa
Press
MSL
hPa
Rain since
9am
mm
Dir  Spd
km/h
Gust
km/h
Spd
kts
Gust
kts
14/10:00pm 19.6 - - - - WNW 2 4 1 2 1015.0 1015.0 -
14/09:30pm 19.5 - - - - NNE 7 11 4 6 1014.8 1014.8 -
14/09:00pm 19.2 - - - - NE 11 15 6 8 1014.4 1014.4 -
14/08:30pm 19.4 - - - - N 11 15 6 8 1014.3 1014.3 -
14/08:00pm 19.1 - - - - NNE 13 19 7 10 1014.2 1014.2 -
14/07:30pm 19.0 - - - - NE 11 17 6 9 1014.1 1014.1 -
14/07:00pm 19.5 - - - - NNE 15 22 8 12 1013.9 1013.9 -
14/06:30pm 19.5 - - - - NNE 11 17 6 9 1013.7 1013.7 -
14/06:00pm 19.4 - - - - NE 9 13 5 7 1013.6 1013.6 -
14/05:30pm 19.4 - - - - NE 13 17 7 9 1013.5 1013.5 -
14/05:00pm 19.3 - - - - NNE 13 17 7 9 1013.5 1013.5 -
14/04:30pm 19.0 - - - - NNE 13 19 7 10 1013.7 1013.7 -
14/04:00pm 18.9 - - - - NNE 19 22 10 12 1013.5 1013.5 -
14/03:30pm 19.0 - - - - NNE 15 20 8 11 1013.6 1013.6 -
14/03:00pm 18.7 - - - - NE 19 22 10 12 1013.9 1013.9 -
14/02:30pm 18.9 - - - - NNE 15 20 8 11 1014.4 1014.4 -
14/02:00pm 18.9 - - - - NE 11 17 6 9 1014.1 1014.1 -
14/01:30pm 19.1 - - - - NE 9 13 5 7 1014.5 1014.5 -
14/01:00pm 18.8 - - - - NNE 9 13 5 7 1015.1 1015.1 -
14/12:30pm 18.8 - - - - NE 11 15 6 8 1015.3 1015.3 -
14/12:00pm 18.9 - - - - NE 11 15 6 8 1016.0 1016.0 -
14/11:30am 18.9 - - - - NE 7 9 4 5 1016.0 1016.0 -
14/11:00am 19.1 - - - - NE 9 11 5 6 1016.4 1016.4 -
14/10:30am 19.4 - - - - NNE 4 6 2 3 1016.0 1016.0 -
14/10:00am 19.0 - - - - NNE 6 9 3 5 1015.9 1015.9 -
14/09:30am 18.8 - - - - NE 9 13 5 7 1015.5 1015.5 -
14/09:00am 18.8 - - - - ENE 7 11 4 6 1015.9 1015.9 -
14/08:30am 19.4 - - - - ENE 2 4 1 2 1015.8 1015.8 -
14/08:00am 19.2 - - - - N 6 9 3 5 1015.9 1015.9 -
14/07:30am 19.0 - - - - N 7 11 4 6 1015.5 1015.5 -
14/07:00am 18.9 - - - - NNE 6 9 3 5 1015.2 1015.2 -
14/06:30am 19.0 - - - - NE 9 11 5 6 1014.7 1014.7 -
14/06:00am 18.9 - - - - NNE 7 9 4 5 1014.5 1014.5 -
14/05:30am 19.1 - - - - NNE 7 11 4 6 1014.0 1014.0 -
14/05:00am 18.9 - - - - N 6 7 3 4 1014.0 1014.0 -
14/04:30am 19.0 - - - - N 7 9 4 5 1013.9 1013.9 -
14/04:00am 19.0 - - - - NNE 9 11 5 6 1013.8 1013.8 -
14/03:30am 19.1 - - - - NNE 7 11 4 6 1014.0 1014.0 -
14/03:00am 19.3 - - - - N 7 9 4 5 1014.1 1014.1 -
14/02:30am 19.0 - - - - NNE 7 9 4 5 1014.3 1014.3 -
14/02:00am 19.3 - - - - NNE 11 15 6 8 1014.6 1014.6 -
14/01:30am 19.4 - - - - NNE 13 17 7 9 1015.0 1015.0 -
14/01:00am 19.6 - - - - NNE 13 17 7 9 1015.3 1015.3 -
14/12:30am 19.5 - - - - NE 13 17 7 9 1015.5 1015.5 -
14/12:00am 19.8 - - - - NNE 11 17 6 9 1015.7 1015.7 -
 
Date/Time
EDT
Temp
°C
App
Temp
°C
Dew
Point
°C
Rel
Hum
%
Delta-T
°C
Wind Press
QNH
hPa
Press
MSL
hPa
Rain since
9am
mm
Dir  Spd
km/h
Gust
km/h
Spd
kts
Gust
kts
13/11:30pm 19.7 - - - - NNE 9 13 5 7 1015.9 1015.9 -
13/11:00pm 19.7 - - - - NNE 9 13 5 7 1016.1 1016.1 -
13/10:30pm 19.6 - - - - NNE 13 17 7 9 1016.2 1016.2 -
13/10:00pm 19.7 - - - - NNE 19 26 10 14 1016.1 1016.1 -
13/09:30pm 19.8 - - - - NNE 24 32 13 17 1016.1 1016.1 -
13/09:00pm 19.8 - - - - NNE 24 32 13 17 1015.9 1015.9 -
13/08:30pm 19.9 - - - - NNE 28 37 15 20 1015.7 1015.7 -
13/08:00pm 20.0 - - - - NNE 30 37 16 20 1015.5 1015.5 -
13/07:30pm 20.0 - - - - NE 30 41 16 22 1015.3 1015.3 -
13/07:00pm 20.0 - - - - NE 30 41 16 22 1015.1 1015.1 -
13/06:30pm 20.0 - - - - NE 30 39 16 21 1014.8 1014.8 -
13/06:00pm 20.1 - - - - NE 32 46 17 25 1014.6 1014.6 -
13/05:30pm 20.2 - - - - NE 32 43 17 23 1014.6 1014.6 -
13/05:00pm 20.2 - - - - NE 32 44 17 24 1014.6 1014.6 -
13/04:30pm 20.3 - - - - NE 32 43 17 23 1014.8 1014.8 -
13/04:00pm 20.3 - - - - NE 33 44 18 24 1014.9 1014.9 -
13/03:30pm 20.2 - - - - NE 35 48 19 26 1015.0 1015.0 -
13/03:00pm 20.4 - - - - NE 32 41 17 22 1015.7 1015.7 -
13/02:30pm 20.4 - - - - NE 32 43 17 23 1016.1 1016.1 -
13/02:00pm 20.3 - - - - NE 30 43 16 23 1016.3 1016.3 -
13/01:30pm 20.3 - - - - NE 32 43 17 23 1016.6 1016.6 -
13/01:00pm 20.3 - - - - NE 32 44 17 24 1016.9 1016.9 -
13/12:30pm 20.4 - - - - NE 32 44 17 24 1017.6 1017.6 -
13/12:00pm 20.3 - - - - NE 30 39 16 21 1017.9 1017.9 -
13/11:30am 20.2 - - - - NE 28 39 15 21 1018.0 1018.0 -
13/11:00am 20.2 - - - - NE 28 37 15 20 1018.3 1018.3 -
13/10:30am 20.3 - - - - NE 22 30 12 16 1018.7 1018.7 -
13/10:00am 20.3 - - - - NE 20 28 11 15 1018.7 1018.7 -
13/09:30am 20.2 - - - - NE 22 28 12 15 1018.8 1018.8 -
13/09:00am 20.4 - - - - NNE 20 28 11 15 1019.1 1019.1 -
13/08:30am 19.8 - - - - NNE 20 28 11 15 1019.2 1019.2 -
13/08:00am 19.6 - - - - NNE 19 24 10 13 1019.2 1019.2 -
13/07:30am 19.6 - - - - N 11 17 6 9 1019.1 1019.1 -
13/07:00am 18.8 - - - - NNW 9 13 5 7 1018.9 1018.9 -
13/06:30am 18.6 - - - - NW 11 15 6 8 1018.7 1018.7 -
13/06:00am 18.8 - - - - NNW 9 13 5 7 1018.4 1018.4 -
13/05:30am 19.2 - - - - N 13 20 7 11 1018.3 1018.3 -
13/05:00am 19.2 - - - - N 9 17 5 9 1018.3 1018.3 -
13/04:30am 19.1 - - - - N 11 17 6 9 1018.2 1018.2 -
13/04:00am 18.9 - - - - N 9 15 5 8 1018.4 1018.4 -
13/03:30am 18.9 - - - - N 7 13 4 7 1018.5 1018.5 -
13/03:00am 19.0 - - - - N 7 11 4 6 1018.7 1018.7 -
13/02:30am 18.9 - - - - NNW 7 13 4 7 1018.9 1018.9 -
13/02:00am 18.8 - - - - NNW 11 13 6 7 1019.2 1019.2 -
13/01:30am 18.8 - - - - NNW 11 15 6 8 1019.3 1019.3 -
13/01:00am 18.7 - - - - N 7 13 4 7 1019.4 1019.4 -
13/12:30am 18.6 - - - - NNW 11 15 6 8 1019.9 1019.9 -
13/12:00am 18.6 - - - - NNW 9 11 5 6 1020.1 1020.1 -
 
Date/Time
EDT
Temp
°C
App
Temp
°C
Dew
Point
°C
Rel
Hum
%
Delta-T
°C
Wind Press
QNH
hPa
Press
MSL
hPa
Rain since
9am
mm
Dir  Spd
km/h
Gust
km/h
Spd
kts
Gust
kts
12/11:30pm 18.8 - - - - NNW 7 13 4 7 1020.3 1020.3 -
12/11:00pm 18.7 - - - - N 6 9 3 5 1020.5 1020.5 -
12/10:30pm 18.7 - - - - NNW 9 15 5 8 1020.7 1020.7 -
12/10:00pm 19.0 - - - - N 11 19 6 10 1020.7 1020.7 -
12/09:30pm 19.2 - - - - NNE 20 26 11 14 1020.5 1020.5 -
12/09:00pm 19.6 - - - - NNE 20 28 11 15 1020.2 1020.2 -
12/08:30pm 19.6 - - - - NNE 20 26 11 14 1020.4 1020.4 -
12/08:00pm 19.5 - - - - NNE 22 28 12 15 1020.2 1020.2 -
12/07:30pm 19.6 - - - - NNE 22 30 12 16 1020.2 1020.2 -
12/07:00pm 19.9 - - - - NE 22 30 12 16 1020.0 1020.0 -
12/06:30pm 19.9 - - - - NE 24 32 13 17 1019.6 1019.6 -
12/06:00pm 19.8 - - - - NE 22 30 12 16 1019.4 1019.4 -
12/05:30pm 19.8 - - - - NE 20 26 11 14 1019.6 1019.6 -
12/05:00pm 19.9 - - - - NE 20 28 11 15 1019.7 1019.7 -
12/04:30pm 19.9 - - - - NE 22 28 12 15 1019.7 1019.7 -
12/04:00pm 20.1 - - - - NE 19 24 10 13 1019.6 1019.6 -
12/03:30pm 20.0 - - - - NE 19 28 10 15 1019.8 1019.8 -
12/03:00pm 19.9 - - - - NE 22 30 12 16 1020.2 1020.2 -
12/02:30pm 19.9 - - - - NE 19 26 10 14 1020.6 1020.6 -
12/02:00pm 20.0 - - - - NE 19 28 10 15 1021.1 1021.1 -
12/01:30pm 19.9 - - - - NE 19 26 10 14 1021.4 1021.4 -
12/01:00pm 19.7 - - - - NE 17 24 9 13 1021.7 1021.7 -
12/12:30pm 19.9 - - - - ENE 15 22 8 12 1022.2 1022.2 -
12/12:00pm 20.0 - - - - ENE 13 19 7 10 1022.5 1022.5 -
12/11:30am 19.8 - - - - ENE 13 19 7 10 1023.0 1023.0 -
12/11:00am 19.2 - - - - ENE 13 17 7 9 1023.2 1023.2 -
12/10:30am 19.4 - - - - ENE 9 13 5 7 1023.4 1023.4 -
12/10:00am 19.1 - - - - E 9 13 5 7 1023.2 1023.2 -
12/09:30am 18.9 - - - - E 7 11 4 6 1023.4 1023.4 -
12/09:00am 19.1 - - - - E 4 7 2 4 1023.4 1023.4 -
12/08:30am 18.9 - - - - ENE 4 6 2 3 1023.3 1023.3 -
12/08:00am 19.1 - - - - E 4 4 2 2 1023.2 1023.2 -
12/07:30am 18.3 - - - - NW 2 2 1 1 1022.9 1022.9 -
12/07:00am 17.4 - - - - SW 4 4 2 2 1022.6 1022.6 -
12/06:30am 16.3 - - - - WSW 6 6 3 3 1022.7 1022.7 -
12/06:00am 15.9 - - - - WSW 6 7 3 4 1022.5 1022.5 -
12/05:30am 16.0 - - - - WSW 6 7 3 4 1022.2 1022.2 -
12/05:00am 15.8 - - - - WSW 7 9 4 5 1021.9 1021.9 -
12/04:30am 16.1 - - - - WSW 6 9 3 5 1021.7 1021.7 -
12/04:00am 15.9 - - - - SW 9 11 5 6 1021.9 1021.9 -
12/03:30am 16.3 - - - - SW 7 9 4 5 1021.7 1021.7 -
12/03:00am 16.5 - - - - SW 6 9 3 5 1021.7 1021.7 -
12/02:30am 16.8 - - - - WSW 6 9 3 5 1021.9 1021.9 -
12/02:00am 16.8 - - - - SW 4 6 2 3 1022.0 1022.0 -
12/01:30am 16.9 - - - - WSW 7 9 4 5 1022.3 1022.3 -
12/01:00am 17.2 - - - - WSW 6 7 3 4 1022.4 1022.4 -
12/12:30am 17.9 - - - - WSW 4 6 2 3 1022.5 1022.5 -
12/12:00am 18.4 - - - - N 2 4 1 2 1022.6 1022.6 -
 
Date/Time
EDT
Temp
°C
App
Temp
°C
Dew
Point
°C
Rel
Hum
%
Delta-T
°C
Wind Press
QNH
hPa
Press
MSL
hPa
Rain since
9am
mm
Dir  Spd
km/h
Gust
km/h
Spd
kts
Gust
kts
11/11:30pm 18.6 - - - - N 4 6 2 3 1022.7 1022.7 -
11/11:00pm 18.8 - - - - NNW 6 7 3 4 1022.8 1022.8 -
11/10:30pm 18.9 - - - - NNW 6 9 3 5 1022.8 1022.8 -

Other Formats:

Comma delimited format used in spreadsheet applications
http://www.bom.gov.au/fwo/IDN60801/IDN60801.95745.axf

JavaScript Object Notation format (JSON) in row-major order
http://www.bom.gov.au/fwo/IDN60801/IDN60801.95745.json